Pantanassa — SVA6909 — position and weather

sailwx.info

Track history (hours):
 
Tides and Currents Weather Stations Pressure Air Temp Water Temp Dewpoint Dewpoint Depression Visibility Wind Speed Wind Dir Waves Ship Positions

Pantanassa

Last reported at 2017-Oct-17 12:03 UTC. Time now 2017-Oct-17 15:49 UTC.
Position N 37°57' E 023°36'.

Length 40 m; draft 3.8 m.

Type: Tug. MMSI: 241442000.

Date/timePositionNaut miles runAvg speedWind from/ knotsBaromVisibWave heightAir tempDewpointWater temp
2017-Oct-17 12:03N 37°57' E 023°36'0 0.0
2017-Oct-17 12:00N 37°57' E 023°36'1 1.1
2017-Oct-17 11:30N 37°57' E 023°36'1 1.0
2017-Oct-17 10:58N 37°57' E 023°36'0 0.0
2017-Oct-17 10:30N 37°57' E 023°36'0 0.0
2017-Oct-17 09:58N 37°57' E 023°36'0 0.0
2017-Oct-17 09:25N 37°57' E 023°36'0 0.0
2017-Oct-17 09:00N 37°57' E 023°36'0 0.0
2017-Oct-17 08:30N 37°57' E 023°36'0 0.0
2017-Oct-17 07:59N 37°57' E 023°36'0 0.0
2017-Oct-17 07:30N 37°57' E 023°36'0 0.0
2017-Oct-17 07:00N 37°57' E 023°36'0 0.0
2017-Oct-17 06:30N 37°57' E 023°36'0 0.0
2017-Oct-17 06:00N 37°57' E 023°36'0 0.0
2017-Oct-17 05:30N 37°57' E 023°36'0 0.0
2017-Oct-17 05:00N 37°57' E 023°36'0 0.0
2017-Oct-17 04:30N 37°57' E 023°36'0 0.0
2017-Oct-17 04:00N 37°57' E 023°36'0 0.0
2017-Oct-17 03:30N 37°57' E 023°36'0 0.0
2017-Oct-17 03:00N 37°57' E 023°36'0 0.0
2017-Oct-16 17:50N 37°57' E 023°36'0 0.0
2017-Oct-16 17:30N 37°57' E 023°36'3 6.5
2017-Oct-16 17:00N 37°59' E 023°33'4 8.0
2017-Oct-16 16:30N 38°02' E 023°32'0 0.1
2017-Oct-16 16:00N 38°02' E 023°32'0 0.1
2017-Oct-16 15:30N 38°02' E 023°32'3 5.3
2017-Oct-16 15:00N 37°60' E 023°33'4 7.5
2017-Oct-16 14:30N 37°57' E 023°36'0 0.4
2017-Oct-16 13:30N 37°57' E 023°36'0 0.0
2017-Oct-16 13:00N 37°57' E 023°36'0 0.0
2017-Oct-16 12:31N 37°57' E 023°36'0 0.0
2017-Oct-16 12:00N 37°57' E 023°36'0 0.0
2017-Oct-16 11:30N 37°57' E 023°36'0 0.0
2017-Oct-16 11:00N 37°57' E 023°36'0 0.0
2017-Oct-16 10:30N 37°57' E 023°36'1 1.1
2017-Oct-16 10:00N 37°57' E 023°36'1 1.7
2017-Oct-16 09:31N 37°56' E 023°36'1 1.1
2017-Oct-16 09:00N 37°57' E 023°36'0 0.0
2017-Oct-16 08:30N 37°57' E 023°36'0 0.0
2017-Oct-16 08:01N 37°57' E 023°36'0 0.1
2017-Oct-16 07:30N 37°57' E 023°36'0 0.0
2017-Oct-16 07:00N 37°57' E 023°36'0 0.0
2017-Oct-16 06:30N 37°57' E 023°36'0 0.0
2017-Oct-16 06:00N 37°57' E 023°36'0 0.0
2017-Oct-16 05:30N 37°57' E 023°36'0 0.0
2017-Oct-16 05:00N 37°57' E 023°36'0 0.0
2017-Oct-16 04:30N 37°57' E 023°36'0 0.0
2017-Oct-16 04:00N 37°57' E 023°36'0 0.0
2017-Oct-16 03:30N 37°57' E 023°36'0 0.0
2017-Oct-16 03:00N 37°57' E 023°36'0 0.0
2017-Oct-16 02:30N 37°57' E 023°36'0 0.0
2017-Oct-16 02:00N 37°57' E 023°36'0 0.0
2017-Oct-16 01:30N 37°57' E 023°36'0 0.0
2017-Oct-16 01:00N 37°57' E 023°36'0 0.0
2017-Oct-16 00:30N 37°57' E 023°36'0 0.0
2017-Oct-16 00:01N 37°57' E 023°36'0 0.0
2017-Oct-15 23:30N 37°57' E 023°36'0 0.0
2017-Oct-15 23:00N 37°57' E 023°36'0 0.0
2017-Oct-15 22:30N 37°57' E 023°36'0 0.0
2017-Oct-15 22:00N 37°57' E 023°36'0 0.0
2017-Oct-15 21:30N 37°57' E 023°36'0 0.0
2017-Oct-15 21:00N 37°57' E 023°36'0 0.0
2017-Oct-15 20:30N 37°57' E 023°36'1 2.8
2017-Oct-15 20:00N 37°56' E 023°38'2 3.7
2017-Oct-15 19:31N 37°57' E 023°36'0 1.0
2017-Oct-15 19:00N 37°57' E 023°36'0 0.0
2017-Oct-15 18:30N 37°57' E 023°36'0 0.0
2017-Oct-15 18:00N 37°57' E 023°36'0 0.0
2017-Oct-15 17:30N 37°57' E 023°36'0 0.0
2017-Oct-15 17:00N 37°57' E 023°36'0 0.0
2017-Oct-15 16:30N 37°57' E 023°36'0 0.0
2017-Oct-15 16:01N 37°57' E 023°36'4 7.1
2017-Oct-15 15:30N 37°59' E 023°33'3 6.2
2017-Oct-15 15:00N 38°01' E 023°36'2 2.4
2017-Oct-15 14:00N 38°02' E 023°33'0 0.9
2017-Oct-15 13:30N 38°02' E 023°33'0 0.0
2017-Oct-15 13:00N 38°02' E 023°33'0 0.0
2017-Oct-15 12:30N 38°02' E 023°33'0 0.0
2017-Oct-15 12:00N 38°02' E 023°33'0 0.0
2017-Oct-15 11:30N 38°02' E 023°33'0 0.0
2017-Oct-15 11:00N 38°02' E 023°33'0 0.0
2017-Oct-15 10:30N 38°02' E 023°33'0 0.4
2017-Oct-15 10:00N 38°02' E 023°33'2 5.0
2017-Oct-15 09:30N 38°02' E 023°36'0 0.1
2017-Oct-15 09:00N 38°02' E 023°36'0 0.3
2017-Oct-15 08:30N 38°01' E 023°35'0 0.0
2017-Oct-15 08:00N 38°01' E 023°35'0 0.0
2017-Oct-15 07:30N 38°01' E 023°35'0 0.0
2017-Oct-15 07:00N 38°01' E 023°35'0 0.8
2017-Oct-15 06:31N 38°01' E 023°35'0 0.3
2017-Oct-15 06:00N 38°01' E 023°35'0 0.6
2017-Oct-15 05:30N 38°01' E 023°35'3 5.9
2017-Oct-15 05:00N 37°59' E 023°33'3 6.0
2017-Oct-15 04:31N 37°57' E 023°36'0 0.6
2017-Oct-15 04:00N 37°57' E 023°36'0 0.0
2017-Oct-15 03:30N 37°57' E 023°36'0 0.0
2017-Oct-15 03:00N 37°57' E 023°36'0 0.0
2017-Oct-13 11:08N 37°57' E 023°36'0 0.0
2017-Oct-13 11:00N 37°57' E 023°36'0 0.0
2017-Oct-13 10:30N 37°57' E 023°36'0 0.0
2017-Oct-13 10:01N 37°57' E 023°36'0 0.0
2017-Oct-13 09:30N 37°57' E 023°36'0 0.0
2017-Oct-13 09:00N 37°57' E 023°36'0 0.0
2017-Oct-13 08:31N 37°57' E 023°36'0 0.0
2017-Oct-13 08:01N 37°57' E 023°36'0 0.0
2017-Oct-13 07:30N 37°57' E 023°36'0 0.0
2017-Oct-13 07:00N 37°57' E 023°36'0 0.0
2017-Oct-13 06:30N 37°57' E 023°36'0 0.0
2017-Oct-13 06:00N 37°57' E 023°36'0 0.0
2017-Oct-13 05:31N 37°57' E 023°36'0 0.0
2017-Oct-13 05:00N 37°57' E 023°36'0 0.0
2017-Oct-13 04:30N 37°57' E 023°36'0 0.0
2017-Oct-13 04:01N 37°57' E 023°36'0 0.0
2017-Oct-13 03:30N 37°57' E 023°36'0 0.0
2017-Oct-13 03:00N 37°57' E 023°36'0 0.0
2017-Oct-12 18:34N 37°57' E 023°36'0 0.0
2017-Oct-12 18:30N 37°57' E 023°36'2 3.3
2017-Oct-12 18:00N 37°57' E 023°34'5 9.4
2017-Oct-12 17:30N 38°02' E 023°32'1 1.8
2017-Oct-12 17:00N 38°02' E 023°32'1 1.8
2017-Oct-12 16:31N 38°01' E 023°31'1 2.1
2017-Oct-12 16:00N 38°02' E 023°32'0 0.0
2017-Oct-12 15:30N 38°02' E 023°32'0 0.0
2017-Oct-12 15:00N 38°02' E 023°32'0 0.0
2017-Oct-12 14:30N 38°02' E 023°32'1 2.6
2017-Oct-12 14:00N 38°01' E 023°32'4 8.6
2017-Oct-12 13:30N 37°57' E 023°34'2 3.3
2017-Oct-12 13:00N 37°57' E 023°36'0 0.0
2017-Oct-12 12:31N 37°57' E 023°36'0 0.0
2017-Oct-12 12:00N 37°57' E 023°36'0 0.0
2017-Oct-12 11:30N 37°57' E 023°36'0 0.0
2017-Oct-12 11:01N 37°57' E 023°36'1 1.3
2017-Oct-12 10:30N 37°58' E 023°36'2 3.3
2017-Oct-12 10:00N 37°56' E 023°36'1 2.1
2017-Oct-12 09:30N 37°57' E 023°36'0 0.0
2017-Oct-12 09:00N 37°57' E 023°36'0 0.0
2017-Oct-12 08:31N 37°57' E 023°36'0 0.0
2017-Oct-12 08:00N 37°57' E 023°36'0 0.0
2017-Oct-12 07:30N 37°57' E 023°36'0 0.0
2017-Oct-12 07:00N 37°57' E 023°36'0 0.0
2017-Oct-12 06:30N 37°57' E 023°36'0 0.0
2017-Oct-12 06:00N 37°57' E 023°36'0 0.0
2017-Oct-12 05:29N 37°57' E 023°36'0 0.0
2017-Oct-12 05:00N 37°57' E 023°36'0 0.0
2017-Oct-12 04:30N 37°57' E 023°36'0 0.0
2017-Oct-12 03:56N 37°57' E 023°36'0 0.0
2017-Oct-12 03:30N 37°57' E 023°36'0 0.0
2017-Oct-12 02:59N 37°57' E 023°36'0 0.0
2017-Oct-10 11:31N 37°57' E 023°36'0 0.7
2017-Oct-10 11:30N 37°57' E 023°36'0 0.9
2017-Oct-10 11:01N 37°57' E 023°36'0 0.4
2017-Oct-10 10:30N 37°58' E 023°36'1 1.2
2017-Oct-10 10:00N 37°57' E 023°36'0 0.0
2017-Oct-10 09:30N 37°57' E 023°36'0 0.0
2017-Oct-10 09:00N 37°57' E 023°36'0 0.0
2017-Oct-10 08:30N 37°57' E 023°36'0 0.0
2017-Oct-10 08:00N 37°57' E 023°36'0 0.0
2017-Oct-10 07:30N 37°57' E 023°36'0 0.0
2017-Oct-10 07:01N 37°57' E 023°36'0 0.0
2017-Oct-10 06:30N 37°57' E 023°36'0 0.0
2017-Oct-10 06:00N 37°57' E 023°36'0 0.0
2017-Oct-10 05:30N 37°57' E 023°36'1 1.2
2017-Oct-10 05:00N 37°58' E 023°36'1 1.5
2017-Oct-10 04:30N 37°57' E 023°36'1 2.2
2017-Oct-10 04:00N 37°56' E 023°36'1 2.2
2017-Oct-10 03:30N 37°57' E 023°36'0 0.0
2017-Oct-10 03:00N 37°57' E 023°36'0 0.0
2017-Oct-09 12:16N 37°57' E 023°36'0 0.0
2017-Oct-09 12:00N 37°57' E 023°36'0 0.0
2017-Oct-09 11:30N 37°57' E 023°36'0 0.0
2017-Oct-09 11:00N 37°57' E 023°36'0 0.0
2017-Oct-09 10:30N 37°57' E 023°36'0 0.0
2017-Oct-09 10:00N 37°57' E 023°36'0 0.0
2017-Oct-09 09:30N 37°57' E 023°36'0 0.9
2017-Oct-09 09:00N 37°57' E 023°36'2 3.6
2017-Oct-09 08:30N 37°56' E 023°38'1 2.8
2017-Oct-09 08:00N 37°57' E 023°36'0 0.0
2017-Oct-09 07:30N 37°57' E 023°36'0 0.0
2017-Oct-09 07:00N 37°57' E 023°36'0 0.0
2017-Oct-09 06:30N 37°57' E 023°36'0 0.0
2017-Oct-09 06:00N 37°57' E 023°36'0 0.0
2017-Oct-09 05:30N 37°57' E 023°36'0 0.0
2017-Oct-09 05:00N 37°57' E 023°36'0 0.0
2017-Oct-09 04:30N 37°57' E 023°36'0 0.0
2017-Oct-09 04:00N 37°57' E 023°36'0 0.0
2017-Oct-09 03:30N 37°57' E 023°36'0 0.0
2017-Oct-09 03:00N 37°57' E 023°36'0 0.0
2017-Oct-08 12:44N 37°57' E 023°36'0 0.0
2017-Oct-08 12:30N 37°57' E 023°36'0 0.9
2017-Oct-08 12:00N 37°57' E 023°36'0 0.9
2017-Oct-08 11:31N 37°58' E 023°36'1 1.2
2017-Oct-08 11:00N 37°57' E 023°36'0 0.0
2017-Oct-08 10:30N 37°57' E 023°36'0 0.0
2017-Oct-08 10:00N 37°57' E 023°36'0 0.0
2017-Oct-08 09:30N 37°57' E 023°36'0 0.0
2017-Oct-08 09:00N 37°57' E 023°36'0 0.0
2017-Oct-08 08:30N 37°57' E 023°36'0 0.0
2017-Oct-08 08:00N 37°57' E 023°36'0 0.0
2017-Oct-08 07:30N 37°57' E 023°36'0 0.0
2017-Oct-08 07:00N 37°57' E 023°36'0 0.0
2017-Oct-08 06:30N 37°57' E 023°36'0 0.0
2017-Oct-08 06:00N 37°57' E 023°36'0 0.0
2017-Oct-08 05:30N 37°57' E 023°36'1 1.3
2017-Oct-08 05:00N 37°58' E 023°36'1 2.3
2017-Oct-08 04:30N 37°56' E 023°36'0 0.7
2017-Oct-08 04:01N 37°56' E 023°36'1 1.8
2017-Oct-08 03:30N 37°57' E 023°36'0 0.0
2017-Oct-08 03:00N 37°57' E 023°36'  
Track history (hours):
 
Tides and Currents Weather Stations Pressure Air Temp Water Temp Dewpoint Dewpoint Depression Visibility Wind Speed Wind Dir Waves Ship Positions

Pantanassa

Last reported at 2017-Oct-17 12:03 UTC. Time now 2017-Oct-17 15:49 UTC.
Position N 37°57' E 023°36'.

Length 40 m; draft 3.8 m.

Type: Tug. MMSI: 241442000.

Date/timePositionNaut miles runAvg speedWind from/ knotsBaromVisibWave heightAir tempDewpointWater temp
2017-Oct-17 12:03N 37°57' E 023°36'0 0.0
2017-Oct-17 12:00N 37°57' E 023°36'1 1.1
2017-Oct-17 11:30N 37°57' E 023°36'1 1.0
2017-Oct-17 10:58N 37°57' E 023°36'0 0.0
2017-Oct-17 10:30N 37°57' E 023°36'0 0.0
2017-Oct-17 09:58N 37°57' E 023°36'0 0.0
2017-Oct-17 09:25N 37°57' E 023°36'0 0.0
2017-Oct-17 09:00N 37°57' E 023°36'0 0.0
2017-Oct-17 08:30N 37°57' E 023°36'0 0.0
2017-Oct-17 07:59N 37°57' E 023°36'0 0.0
2017-Oct-17 07:30N 37°57' E 023°36'0 0.0
2017-Oct-17 07:00N 37°57' E 023°36'0 0.0
2017-Oct-17 06:30N 37°57' E 023°36'0 0.0
2017-Oct-17 06:00N 37°57' E 023°36'0 0.0
2017-Oct-17 05:30N 37°57' E 023°36'0 0.0
2017-Oct-17 05:00N 37°57' E 023°36'0 0.0
2017-Oct-17 04:30N 37°57' E 023°36'0 0.0
2017-Oct-17 04:00N 37°57' E 023°36'0 0.0
2017-Oct-17 03:30N 37°57' E 023°36'0 0.0
2017-Oct-17 03:00N 37°57' E 023°36'0 0.0
2017-Oct-16 17:50N 37°57' E 023°36'0 0.0
2017-Oct-16 17:30N 37°57' E 023°36'3 6.5
2017-Oct-16 17:00N 37°59' E 023°33'4 8.0
2017-Oct-16 16:30N 38°02' E 023°32'0 0.1
2017-Oct-16 16:00N 38°02' E 023°32'0 0.1
2017-Oct-16 15:30N 38°02' E 023°32'3 5.3
2017-Oct-16 15:00N 37°60' E 023°33'4 7.5
2017-Oct-16 14:30N 37°57' E 023°36'0 0.4
2017-Oct-16 13:30N 37°57' E 023°36'0 0.0
2017-Oct-16 13:00N 37°57' E 023°36'0 0.0
2017-Oct-16 12:31N 37°57' E 023°36'0 0.0
2017-Oct-16 12:00N 37°57' E 023°36'0 0.0
2017-Oct-16 11:30N 37°57' E 023°36'0 0.0
2017-Oct-16 11:00N 37°57' E 023°36'0 0.0
2017-Oct-16 10:30N 37°57' E 023°36'1 1.1
2017-Oct-16 10:00N 37°57' E 023°36'1 1.7
2017-Oct-16 09:31N 37°56' E 023°36'1 1.1
2017-Oct-16 09:00N 37°57' E 023°36'0 0.0
2017-Oct-16 08:30N 37°57' E 023°36'0 0.0
2017-Oct-16 08:01N 37°57' E 023°36'0 0.1
2017-Oct-16 07:30N 37°57' E 023°36'0 0.0
2017-Oct-16 07:00N 37°57' E 023°36'0 0.0
2017-Oct-16 06:30N 37°57' E 023°36'0 0.0
2017-Oct-16 06:00N 37°57' E 023°36'0 0.0
2017-Oct-16 05:30N 37°57' E 023°36'0 0.0
2017-Oct-16 05:00N 37°57' E 023°36'0 0.0
2017-Oct-16 04:30N 37°57' E 023°36'0 0.0
2017-Oct-16 04:00N 37°57' E 023°36'0 0.0
2017-Oct-16 03:30N 37°57' E 023°36'0 0.0
2017-Oct-16 03:00N 37°57' E 023°36'0 0.0
2017-Oct-16 02:30N 37°57' E 023°36'0 0.0
2017-Oct-16 02:00N 37°57' E 023°36'0 0.0
2017-Oct-16 01:30N 37°57' E 023°36'0 0.0
2017-Oct-16 01:00N 37°57' E 023°36'0 0.0
2017-Oct-16 00:30N 37°57' E 023°36'0 0.0
2017-Oct-16 00:01N 37°57' E 023°36'0 0.0
2017-Oct-15 23:30N 37°57' E 023°36'0 0.0
2017-Oct-15 23:00N 37°57' E 023°36'0 0.0
2017-Oct-15 22:30N 37°57' E 023°36'0 0.0
2017-Oct-15 22:00N 37°57' E 023°36'0 0.0
2017-Oct-15 21:30N 37°57' E 023°36'0 0.0
2017-Oct-15 21:00N 37°57' E 023°36'0 0.0
2017-Oct-15 20:30N 37°57' E 023°36'1 2.8
2017-Oct-15 20:00N 37°56' E 023°38'2 3.7
2017-Oct-15 19:31N 37°57' E 023°36'0 1.0
2017-Oct-15 19:00N 37°57' E 023°36'0 0.0
2017-Oct-15 18:30N 37°57' E 023°36'0 0.0
2017-Oct-15 18:00N 37°57' E 023°36'0 0.0
2017-Oct-15 17:30N 37°57' E 023°36'0 0.0
2017-Oct-15 17:00N 37°57' E 023°36'0 0.0
2017-Oct-15 16:30N 37°57' E 023°36'0 0.0
2017-Oct-15 16:01N 37°57' E 023°36'4 7.1
2017-Oct-15 15:30N 37°59' E 023°33'3 6.2
2017-Oct-15 15:00N 38°01' E 023°36'2 2.4
2017-Oct-15 14:00N 38°02' E 023°33'0 0.9
2017-Oct-15 13:30N 38°02' E 023°33'0 0.0
2017-Oct-15 13:00N 38°02' E 023°33'0 0.0
2017-Oct-15 12:30N 38°02' E 023°33'0 0.0
2017-Oct-15 12:00N 38°02' E 023°33'0 0.0
2017-Oct-15 11:30N 38°02' E 023°33'0 0.0
2017-Oct-15 11:00N 38°02' E 023°33'0 0.0
2017-Oct-15 10:30N 38°02' E 023°33'0 0.4
2017-Oct-15 10:00N 38°02' E 023°33'2 5.0
2017-Oct-15 09:30N 38°02' E 023°36'0 0.1
2017-Oct-15 09:00N 38°02' E 023°36'0 0.3
2017-Oct-15 08:30N 38°01' E 023°35'0 0.0
2017-Oct-15 08:00N 38°01' E 023°35'0 0.0
2017-Oct-15 07:30N 38°01' E 023°35'0 0.0
2017-Oct-15 07:00N 38°01' E 023°35'0 0.8
2017-Oct-15 06:31N 38°01' E 023°35'0 0.3
2017-Oct-15 06:00N 38°01' E 023°35'0 0.6
2017-Oct-15 05:30N 38°01' E 023°35'3 5.9
2017-Oct-15 05:00N 37°59' E 023°33'3 6.0
2017-Oct-15 04:31N 37°57' E 023°36'0 0.6
2017-Oct-15 04:00N 37°57' E 023°36'0 0.0
2017-Oct-15 03:30N 37°57' E 023°36'0 0.0
2017-Oct-15 03:00N 37°57' E 023°36'0 0.0
2017-Oct-13 11:08N 37°57' E 023°36'0 0.0
2017-Oct-13 11:00N 37°57' E 023°36'0 0.0
2017-Oct-13 10:30N 37°57' E 023°36'0 0.0
2017-Oct-13 10:01N 37°57' E 023°36'0 0.0
2017-Oct-13 09:30N 37°57' E 023°36'0 0.0
2017-Oct-13 09:00N 37°57' E 023°36'0 0.0
2017-Oct-13 08:31N 37°57' E 023°36'0 0.0
2017-Oct-13 08:01N 37°57' E 023°36'0 0.0
2017-Oct-13 07:30N 37°57' E 023°36'0 0.0
2017-Oct-13 07:00N 37°57' E 023°36'0 0.0
2017-Oct-13 06:30N 37°57' E 023°36'0 0.0
2017-Oct-13 06:00N 37°57' E 023°36'0 0.0
2017-Oct-13 05:31N 37°57' E 023°36'0 0.0
2017-Oct-13 05:00N 37°57' E 023°36'0 0.0
2017-Oct-13 04:30N 37°57' E 023°36'0 0.0
2017-Oct-13 04:01N 37°57' E 023°36'0 0.0
2017-Oct-13 03:30N 37°57' E 023°36'0 0.0
2017-Oct-13 03:00N 37°57' E 023°36'0 0.0
2017-Oct-12 18:34N 37°57' E 023°36'0 0.0
2017-Oct-12 18:30N 37°57' E 023°36'2 3.3
2017-Oct-12 18:00N 37°57' E 023°34'5 9.4
2017-Oct-12 17:30N 38°02' E 023°32'1 1.8
2017-Oct-12 17:00N 38°02' E 023°32'1 1.8
2017-Oct-12 16:31N 38°01' E 023°31'1 2.1
2017-Oct-12 16:00N 38°02' E 023°32'0 0.0
2017-Oct-12 15:30N 38°02' E 023°32'0 0.0
2017-Oct-12 15:00N 38°02' E 023°32'0 0.0
2017-Oct-12 14:30N 38°02' E 023°32'1 2.6
2017-Oct-12 14:00N 38°01' E 023°32'4 8.6
2017-Oct-12 13:30N 37°57' E 023°34'2 3.3
2017-Oct-12 13:00N 37°57' E 023°36'0 0.0
2017-Oct-12 12:31N 37°57' E 023°36'0 0.0
2017-Oct-12 12:00N 37°57' E 023°36'0 0.0
2017-Oct-12 11:30N 37°57' E 023°36'0 0.0
2017-Oct-12 11:01N 37°57' E 023°36'1 1.3
2017-Oct-12 10:30N 37°58' E 023°36'2 3.3
2017-Oct-12 10:00N 37°56' E 023°36'1 2.1
2017-Oct-12 09:30N 37°57' E 023°36'0 0.0
2017-Oct-12 09:00N 37°57' E 023°36'0 0.0
2017-Oct-12 08:31N 37°57' E 023°36'0 0.0
2017-Oct-12 08:00N 37°57' E 023°36'0 0.0
2017-Oct-12 07:30N 37°57' E 023°36'0 0.0
2017-Oct-12 07:00N 37°57' E 023°36'0 0.0
2017-Oct-12 06:30N 37°57' E 023°36'0 0.0
2017-Oct-12 06:00N 37°57' E 023°36'0 0.0
2017-Oct-12 05:29N 37°57' E 023°36'0 0.0
2017-Oct-12 05:00N 37°57' E 023°36'0 0.0
2017-Oct-12 04:30N 37°57' E 023°36'0 0.0
2017-Oct-12 03:56N 37°57' E 023°36'0 0.0
2017-Oct-12 03:30N 37°57' E 023°36'0 0.0
2017-Oct-12 02:59N 37°57' E 023°36'0 0.0
2017-Oct-10 11:31N 37°57' E 023°36'0 0.7
2017-Oct-10 11:30N 37°57' E 023°36'0 0.9
2017-Oct-10 11:01N 37°57' E 023°36'0 0.4
2017-Oct-10 10:30N 37°58' E 023°36'1 1.2
2017-Oct-10 10:00N 37°57' E 023°36'0 0.0
2017-Oct-10 09:30N 37°57' E 023°36'0 0.0
2017-Oct-10 09:00N 37°57' E 023°36'0 0.0
2017-Oct-10 08:30N 37°57' E 023°36'0 0.0
2017-Oct-10 08:00N 37°57' E 023°36'0 0.0
2017-Oct-10 07:30N 37°57' E 023°36'0 0.0
2017-Oct-10 07:01N 37°57' E 023°36'0 0.0
2017-Oct-10 06:30N 37°57' E 023°36'0 0.0
2017-Oct-10 06:00N 37°57' E 023°36'0 0.0
2017-Oct-10 05:30N 37°57' E 023°36'1 1.2
2017-Oct-10 05:00N 37°58' E 023°36'1 1.5
2017-Oct-10 04:30N 37°57' E 023°36'1 2.2
2017-Oct-10 04:00N 37°56' E 023°36'1 2.2
2017-Oct-10 03:30N 37°57' E 023°36'0 0.0
2017-Oct-10 03:00N 37°57' E 023°36'0 0.0
2017-Oct-09 12:16N 37°57' E 023°36'0 0.0
2017-Oct-09 12:00N 37°57' E 023°36'0 0.0
2017-Oct-09 11:30N 37°57' E 023°36'0 0.0
2017-Oct-09 11:00N 37°57' E 023°36'0 0.0
2017-Oct-09 10:30N 37°57' E 023°36'0 0.0
2017-Oct-09 10:00N 37°57' E 023°36'0 0.0
2017-Oct-09 09:30N 37°57' E 023°36'0 0.9
2017-Oct-09 09:00N 37°57' E 023°36'2 3.6
2017-Oct-09 08:30N 37°56' E 023°38'1 2.8
2017-Oct-09 08:00N 37°57' E 023°36'0 0.0
2017-Oct-09 07:30N 37°57' E 023°36'0 0.0
2017-Oct-09 07:00N 37°57' E 023°36'0 0.0
2017-Oct-09 06:30N 37°57' E 023°36'0 0.0
2017-Oct-09 06:00N 37°57' E 023°36'0 0.0
2017-Oct-09 05:30N 37°57' E 023°36'0 0.0
2017-Oct-09 05:00N 37°57' E 023°36'0 0.0
2017-Oct-09 04:30N 37°57' E 023°36'0 0.0
2017-Oct-09 04:00N 37°57' E 023°36'0 0.0
2017-Oct-09 03:30N 37°57' E 023°36'0 0.0
2017-Oct-09 03:00N 37°57' E 023°36'0 0.0
2017-Oct-08 12:44N 37°57' E 023°36'0 0.0
2017-Oct-08 12:30N 37°57' E 023°36'0 0.9
2017-Oct-08 12:00N 37°57' E 023°36'0 0.9
2017-Oct-08 11:31N 37°58' E 023°36'1 1.2
2017-Oct-08 11:00N 37°57' E 023°36'0 0.0
2017-Oct-08 10:30N 37°57' E 023°36'0 0.0
2017-Oct-08 10:00N 37°57' E 023°36'0 0.0
2017-Oct-08 09:30N 37°57' E 023°36'0 0.0
2017-Oct-08 09:00N 37°57' E 023°36'0 0.0
2017-Oct-08 08:30N 37°57' E 023°36'0 0.0
2017-Oct-08 08:00N 37°57' E 023°36'0 0.0
2017-Oct-08 07:30N 37°57' E 023°36'0 0.0
2017-Oct-08 07:00N 37°57' E 023°36'0 0.0
2017-Oct-08 06:30N 37°57' E 023°36'0 0.0
2017-Oct-08 06:00N 37°57' E 023°36'0 0.0
2017-Oct-08 05:30N 37°57' E 023°36'1 1.3
2017-Oct-08 05:00N 37°58' E 023°36'1 2.3
2017-Oct-08 04:30N 37°56' E 023°36'0 0.7
2017-Oct-08 04:01N 37°56' E 023°36'1 1.8
2017-Oct-08 03:30N 37°57' E 023°36'0 0.0
2017-Oct-08 03:00N 37°57' E 023°36'  

Dump ship's entire track history